Time;durP1;ratioP1;P1;durP2;ratioP2;P2;SDS_P1;SDS_P2;PMS_P1;PMS_P2;Temp;Humidity;BMP_temperature;BMP_pressure;BME280_temperature;BME280_humidity;BME280_pressure;Samples;Min_cycle;Max_cycle;Signal;HPM_P1;HPM_P2
2022/10/17 00:02:20;;;;;;;4.00;2.50;;;12.60;99.90;;;;;;5056174;28;20818;-85
2022/10/17 00:04:47;;;;;;;3.38;2.67;;;12.60;99.90;;;;;;5049395;28;20308;-85
2022/10/17 00:07:14;;;;;;;2.60;2.40;;;12.80;99.90;;;;;;5057868;28;20233;-86
2022/10/17 00:09:43;;;;;;;3.38;2.53;;;13.00;99.90;;;;;;5055243;28;20636;-86
2022/10/17 00:12:10;;;;;;;3.20;2.63;;;13.30;99.90;;;;;;5055754;28;20226;-86
2022/10/17 00:14:38;;;;;;;5.10;2.50;;;13.30;99.90;;;;;;5047781;28;20286;-85
2022/10/17 00:21:20;;;;;;;4.10;2.20;;;13.30;99.30;;;;;;5055257;28;20255;-85
2022/10/17 00:27:10;;;;;;;4.13;2.40;;;12.60;99.90;;;;;;5058465;28;20312;-86
2022/10/17 00:29:56;;;;;;;4.43;2.53;;;12.70;99.90;;;;;;5061152;28;20236;-85
2022/10/17 00:32:23;;;;;;;3.15;2.33;;;12.80;99.90;;;;;;5054997;28;20285;-85
2022/10/17 00:34:50;;;;;;;6.15;2.15;;;13.10;99.90;;;;;;5061118;28;20226;-85
2022/10/17 00:37:20;;;;;;;5.38;2.50;;;13.00;99.90;;;;;;5061108;28;20261;-85
2022/10/17 00:43:18;;;;;;;2.38;2.17;;;12.50;99.90;;;;;;5060802;28;20165;-85
2022/10/17 00:52:30;;;;;;;4.35;2.20;;;12.30;99.90;;;;;;5056930;28;20249;-85
2022/10/17 00:55:30;;;;;;;9.77;2.30;;;12.50;99.90;;;;;;5060931;28;20291;-85
2022/10/17 00:57:59;;;;;;;4.55;2.30;;;12.60;99.90;;;;;;5060196;28;20198;-85
2022/10/17 01:00:28;;;;;;;4.97;2.30;;;12.40;99.90;;;;;;5064760;28;20202;-85
2022/10/17 01:06:18;;;;;;;2.60;2.10;;;12.10;99.90;;;;;;5060495;28;20228;-85
2022/10/17 01:12:16;;;;;;;3.63;2.53;;;12.50;99.90;;;;;;5060482;28;20185;-85
2022/10/17 01:18:17;;;;;;;3.13;2.45;;;12.60;99.90;;;;;;5053707;28;20185;-85
2022/10/17 01:24:36;;;;;;;5.70;2.28;;;12.30;99.90;;;;;;5055434;28;20644;-85
2022/10/17 01:27:53;;;;;;;3.60;2.30;;;12.00;99.90;;;;;;5055551;28;20205;-85
2022/10/17 01:30:59;;;;;;;5.47;2.45;;;11.80;99.90;;;;;;5034290;28;20198;-85
2022/10/17 01:36:53;;;;;;;4.00;2.40;;;12.10;99.90;;;;;;5052686;28;20243;-85
2022/10/17 01:39:36;;;;;;;4.75;2.30;;;12.30;99.90;;;;;;5056653;28;20257;-85
2022/10/17 01:42:17;;;;;;;3.95;2.40;;;12.40;99.90;;;;;;5062703;28;20633;-85
2022/10/17 01:48:14;;;;;;;5.10;2.42;;;12.60;99.90;;;;;;5052392;28;20275;-86
2022/10/17 01:51:01;;;;;;;5.90;2.60;;;12.60;99.90;;;;;;5051919;28;20201;-87
2022/10/17 01:53:50;;;;;;;8.10;2.42;;;12.60;99.00;;;;;;5051358;28;20190;-85
2022/10/17 01:56:34;;;;;;;3.00;2.50;;;12.20;99.40;;;;;;5053709;28;20221;-86
2022/10/17 01:59:09;;;;;;;4.13;2.30;;;11.90;99.90;;;;;;5051053;28;20232;-86
2022/10/17 02:01:41;;;;;;;3.70;2.30;;;11.70;99.90;;;;;;5044133;28;20282;-85
2022/10/17 02:04:12;;;;;;;5.68;2.33;;;11.80;99.90;;;;;;5044683;28;20201;-85
2022/10/17 02:06:44;;;;;;;3.13;2.53;;;11.80;99.90;;;;;;5050448;28;20230;-84
2022/10/17 02:09:27;;;;;;;4.22;2.40;;;12.00;99.90;;;;;;5052928;28;20198;-85
2022/10/17 02:12:20;;;;;;;3.13;2.40;;;11.80;99.90;;;;;;5051078;28;20204;-86
2022/10/17 02:15:02;;;;;;;3.85;2.25;;;11.60;99.90;;;;;;5055829;28;20217;-86
2022/10/17 02:17:44;;;;;;;3.92;2.10;;;11.50;99.90;;;;;;5048887;28;20204;-85
2022/10/17 02:20:24;;;;;;;5.03;2.28;;;11.70;99.90;;;;;;5062129;28;20190;-85
2022/10/17 02:22:56;;;;;;;7.35;2.30;;;11.90;99.90;;;;;;5053129;28;20259;-88
2022/10/17 02:26:08;;;;;;;3.53;2.50;;;12.00;99.90;;;;;;5059843;28;20198;-85
2022/10/17 02:28:42;;;;;;;5.57;2.28;;;12.20;99.90;;;;;;5053170;28;20208;-85
2022/10/17 02:31:13;;;;;;;5.28;2.08;;;12.20;99.90;;;;;;5056969;28;20292;-86
2022/10/17 02:34:17;;;;;;;9.88;2.30;;;12.10;99.90;;;;;;5056249;28;20206;-85
2022/10/17 02:36:51;;;;;;;3.08;1.92;;;12.20;99.90;;;;;;5055742;28;20225;-86
2022/10/17 02:39:34;;;;;;;3.80;2.13;;;12.30;99.90;;;;;;5050352;28;20205;-85
2022/10/17 02:42:11;;;;;;;3.35;2.22;;;12.20;99.90;;;;;;5052437;28;20589;-85
2022/10/17 02:44:40;;;;;;;7.15;2.05;;;12.20;99.90;;;;;;5056265;28;20208;-85
2022/10/17 02:47:14;;;;;;;2.78;2.10;;;12.20;99.40;;;;;;5054896;28;20293;-88
2022/10/17 02:49:53;;;;;;;2.25;2.00;;;12.10;99.50;;;;;;5069800;28;20693;-85
2022/10/17 02:52:28;;;;;;;4.72;2.10;;;12.10;99.90;;;;;;5059352;28;20197;-85
2022/10/17 02:55:10;;;;;;;6.65;2.38;;;12.10;99.90;;;;;;5065249;28;20228;-85
2022/10/17 02:57:41;;;;;;;3.85;2.20;;;12.20;99.90;;;;;;5053177;28;20203;-85
2022/10/17 03:00:11;;;;;;;3.30;1.90;;;12.30;99.40;;;;;;5045803;28;20260;-86
2022/10/17 03:03:17;;;;;;;2.58;2.20;;;12.30;99.40;;;;;;5046410;28;20191;-85
2022/10/17 03:06:20;;;;;;;5.25;2.35;;;12.30;99.40;;;;;;5058258;28;20649;-85
2022/10/17 03:09:16;;;;;;;3.08;1.90;;;12.30;98.80;;;;;;5052076;28;20190;-87
2022/10/17 03:11:44;;;;;;;2.83;2.10;;;12.30;99.30;;;;;;5047683;28;20262;-86
2022/10/17 03:14:44;;;;;;;6.10;2.17;;;12.30;99.00;;;;;;5055070;28;20620;-86
2022/10/17 03:17:14;;;;;;;2.35;2.15;;;12.10;98.80;;;;;;5055819;28;20292;-86
2022/10/17 03:19:41;;;;;;;3.03;2.13;;;11.70;98.70;;;;;;5057359;28;20281;-85
2022/10/17 03:22:08;;;;;;;6.85;2.30;;;11.40;99.70;;;;;;5054752;28;20205;-85
2022/10/17 03:24:40;;;;;;;5.88;2.47;;;11.20;99.90;;;;;;5056227;28;20218;-86
2022/10/17 03:27:07;;;;;;;4.00;2.47;;;11.00;99.90;;;;;;5051299;28;20718;-86
2022/10/17 03:32:57;;;;;;;3.05;2.72;;;11.20;99.90;;;;;;5050428;28;20560;-85
2022/10/17 03:35:24;;;;;;;5.30;2.63;;;11.50;99.90;;;;;;5053866;28;20237;-86
2022/10/17 03:37:51;;;;;;;8.60;2.75;;;11.70;99.90;;;;;;5049260;28;20193;-86
2022/10/17 03:40:19;;;;;;;4.57;2.63;;;11.70;99.90;;;;;;5051952;28;20293;-87
2022/10/17 03:42:50;;;;;;;6.22;2.47;;;11.60;99.40;;;;;;5047731;28;20328;-85
2022/10/17 03:45:18;;;;;;;4.97;2.38;;;11.40;99.90;;;;;;5053244;28;20232;-87
2022/10/17 03:47:50;;;;;;;8.70;2.60;;;11.10;99.90;;;;;;5057053;28;20284;-86
2022/10/17 03:50:17;;;;;;;6.35;2.63;;;10.90;99.90;;;;;;5054822;28;20220;-86
2022/10/17 03:52:47;;;;;;;4.72;2.30;;;10.70;99.90;;;;;;5052424;28;20553;-87
2022/10/17 03:55:14;;;;;;;3.83;2.30;;;10.60;99.90;;;;;;5066378;28;20217;-86
2022/10/17 03:57:42;;;;;;;4.45;2.10;;;10.50;99.90;;;;;;5063746;28;20202;-86
2022/10/17 04:00:10;;;;;;;2.67;2.40;;;10.70;99.90;;;;;;5051384;28;20198;-87
2022/10/17 04:02:37;;;;;;;6.78;2.25;;;11.10;99.90;;;;;;5055749;28;20296;-85
2022/10/17 04:05:04;;;;;;;5.30;2.20;;;11.40;99.90;;;;;;5050833;28;20613;-85
2022/10/17 04:07:31;;;;;;;4.85;2.08;;;11.60;99.90;;;;;;5061715;28;20194;-86
2022/10/17 04:09:58;;;;;;;7.18;1.98;;;11.70;99.90;;;;;;5051611;28;20201;-85
2022/10/17 04:12:25;;;;;;;4.57;2.08;;;11.50;99.40;;;;;;5056156;28;20198;-86
2022/10/17 04:14:53;;;;;;;1.98;1.70;;;11.30;99.20;;;;;;5056524;28;20288;-85
2022/10/17 04:17:27;;;;;;;3.35;2.13;;;11.00;99.50;;;;;;5052787;28;20225;-86
2022/10/17 04:19:53;;;;;;;3.35;2.40;;;10.90;99.90;;;;;;5046649;28;20277;-86
2022/10/17 04:22:20;;;;;;;3.58;2.03;;;11.10;99.90;;;;;;5060694;28;20716;-85
2022/10/17 04:24:47;;;;;;;4.13;2.13;;;11.10;99.90;;;;;;5054324;28;20206;-86
2022/10/17 04:27:14;;;;;;;4.43;2.10;;;10.80;99.90;;;;;;5052992;28;20222;-86
2022/10/17 04:29:58;;;;;;;4.00;2.05;;;10.70;99.90;;;;;;5052497;28;20342;-86
2022/10/17 04:32:25;;;;;;;4.30;2.28;;;10.70;99.90;;;;;;5051850;28;20288;-85
2022/10/17 04:34:56;;;;;;;3.13;2.10;;;11.00;99.90;;;;;;5055496;28;20198;-86
2022/10/17 04:37:44;;;;;;;7.85;2.25;;;11.20;99.90;;;;;;5054937;28;20212;-86
2022/10/17 04:40:56;;;;;;;3.28;2.00;;;11.50;99.90;;;;;;5052037;28;20197;-86
2022/10/17 04:43:27;;;;;;;3.45;1.92;;;11.40;99.90;;;;;;5053363;28;20241;-85
2022/10/17 04:45:56;;;;;;;3.25;2.13;;;11.20;98.90;;;;;;5053778;28;20197;-86
2022/10/17 04:48:33;;;;;;;6.13;2.10;;;10.90;99.70;;;;;;5048554;28;20202;-86
2022/10/17 04:51:11;;;;;;;3.55;2.08;;;10.70;99.90;;;;;;5046536;28;20645;-85
2022/10/17 04:53:42;;;;;;;6.47;2.35;;;10.50;99.90;;;;;;5054857;28;20643;-86
2022/10/17 04:56:11;;;;;;;3.45;2.40;;;10.50;99.90;;;;;;5037693;28;20222;-86
2022/10/17 04:58:40;;;;;;;2.63;2.25;;;10.80;99.90;;;;;;5040937;28;20201;-86
2022/10/17 05:01:12;;;;;;;4.50;2.25;;;11.10;99.90;;;;;;5040241;28;20548;-85
2022/10/17 05:03:40;;;;;;;4.97;2.40;;;11.00;99.80;;;;;;5039860;28;20285;-86
2022/10/17 05:09:29;;;;;;;3.67;2.25;;;10.50;99.90;;;;;;5052402;28;20185;-87
2022/10/17 05:12:26;;;;;;;5.35;2.83;;;10.30;99.90;;;;;;5043364;28;20256;-86
2022/10/17 05:18:35;;;;;;;4.18;2.50;;;10.50;99.90;;;;;;5042387;28;20218;-86
2022/10/17 05:24:33;;;;;;;3.85;2.75;;;10.50;99.90;;;;;;5037217;28;20317;-86
2022/10/17 05:27:08;;;;;;;3.80;2.60;;;10.90;99.90;;;;;;5043860;28;20217;-84
2022/10/17 05:29:53;;;;;;;5.07;3.08;;;11.00;99.90;;;;;;5039873;28;20281;-84
2022/10/17 05:32:52;;;;;;;3.55;2.90;;;10.80;99.90;;;;;;5042714;28;20661;-85
2022/10/17 05:35:46;;;;;;;4.05;2.78;;;10.70;99.90;;;;;;5052626;28;20637;-86
2022/10/17 05:39:02;;;;;;;5.95;2.92;;;10.70;99.90;;;;;;5056727;28;20223;-87
2022/10/17 05:48:12;;;;;;;3.83;3.03;;;10.80;99.90;;;;;;5053357;28;20607;-86
2022/10/17 05:50:47;;;;;;;8.52;3.20;;;10.70;99.90;;;;;;5052588;28;20204;-86
2022/10/17 05:53:15;;;;;;;9.13;3.25;;;10.60;99.90;;;;;;5053897;28;20230;-85
2022/10/17 05:55:42;;;;;;;9.73;3.05;;;10.50;99.90;;;;;;5058174;28;20200;-86
2022/10/17 05:58:15;;;;;;;9.15;3.10;;;10.40;99.90;;;;;;5056540;28;20198;-85
2022/10/17 06:00:51;;;;;;;10.50;3.33;;;10.30;99.90;;;;;;5056365;28;20284;-86
2022/10/17 06:03:27;;;;;;;6.20;2.95;;;10.20;99.90;;;;;;5059603;28;20280;-85
2022/10/17 06:13:26;;;;;;;7.15;2.63;;;10.10;99.90;;;;;;5044208;28;20181;-86
2022/10/17 06:19:46;;;;;;;10.32;3.22;;;10.20;99.90;;;;;;5054805;28;21213;-85
2022/10/17 06:22:21;;;;;;;5.60;3.08;;;10.20;99.90;;;;;;5050261;28;20233;-86
2022/10/17 06:25:09;;;;;;;5.85;2.80;;;10.20;99.90;;;;;;5048088;28;20277;-86
2022/10/17 06:27:39;;;;;;;10.13;3.30;;;10.30;99.90;;;;;;5046819;28;20274;-86
2022/10/17 06:30:39;;;;;;;6.45;2.90;;;10.30;99.90;;;;;;5047230;28;20202;-86
2022/10/17 06:33:50;;;;;;;5.53;3.30;;;10.30;99.90;;;;;;5056038;28;20194;-85
2022/10/17 06:39:52;;;;;;;8.63;3.42;;;10.40;99.90;;;;;;5059271;28;20276;-86
2022/10/17 06:42:19;;;;;;;11.55;3.70;;;10.50;99.90;;;;;;5056557;28;20201;-85
2022/10/17 06:48:09;;;;;;;8.27;4.28;;;10.60;99.90;;;;;;5034811;28;20207;-86
2022/10/17 06:54:26;;;;;;;6.80;3.58;;;10.70;99.90;;;;;;5044025;28;20201;-87
2022/10/17 06:57:04;;;;;;;5.10;3.47;;;10.70;99.90;;;;;;5058982;28;20723;-85
2022/10/17 06:59:33;;;;;;;11.02;3.60;;;10.80;99.90;;;;;;5051496;28;20194;-85
2022/10/17 07:02:01;;;;;;;5.93;3.50;;;10.90;99.90;;;;;;5054807;28;20194;-85
2022/10/17 07:04:48;;;;;;;4.82;3.03;;;11.00;99.90;;;;;;5057003;28;20278;-87
2022/10/17 07:07:21;;;;;;;4.07;3.13;;;11.20;99.90;;;;;;5050125;28;20201;-85
2022/10/17 07:10:36;;;;;;;5.75;3.13;;;11.20;99.90;;;;;;5058916;28;20198;-85
2022/10/17 07:16:46;;;;;;;5.47;3.25;;;11.60;99.90;;;;;;5060349;28;20574;-86
2022/10/17 07:19:21;;;;;;;6.80;3.50;;;11.70;99.90;;;;;;5065237;28;20201;-85
2022/10/17 07:25:12;;;;;;;6.28;3.72;;;11.90;99.90;;;;;;5058408;28;20269;-85
2022/10/17 07:38:26;;;;;;;4.03;3.35;;;12.60;99.70;;;;;;5063072;28;20309;-85
2022/10/17 07:40:59;;;;;;;8.00;3.47;;;12.80;99.00;;;;;;5064034;28;20233;-85
2022/10/17 07:43:50;;;;;;;4.07;3.08;;;13.00;98.90;;;;;;5054219;28;20290;-86
2022/10/17 07:46:27;;;;;;;4.65;3.40;;;13.10;98.20;;;;;;5045852;28;20201;-86
2022/10/17 07:49:03;;;;;;;11.48;3.70;;;13.30;97.90;;;;;;5048217;28;20190;-87
2022/10/17 07:51:45;;;;;;;5.68;3.50;;;13.40;96.90;;;;;;5052764;28;20278;-87
2022/10/17 07:54:47;;;;;;;3.67;3.00;;;13.60;96.60;;;;;;5043173;28;20197;-86
2022/10/17 07:58:08;;;;;;;4.82;3.30;;;13.70;96.60;;;;;;5048949;28;20221;-87
2022/10/17 08:03:58;;;;;;;3.75;3.40;;;14.00;96.20;;;;;;5042996;28;20258;-86
2022/10/17 08:06:27;;;;;;;5.15;3.22;;;14.10;96.30;;;;;;5055074;28;20213;-87
2022/10/17 08:09:03;;;;;;;4.40;3.38;;;14.30;96.20;;;;;;5041382;28;20657;-86
2022/10/17 08:12:14;;;;;;;7.10;3.33;;;14.40;95.30;;;;;;5036940;28;20189;-87
2022/10/17 08:14:57;;;;;;;4.97;3.17;;;14.50;94.70;;;;;;5041375;28;20281;-92
2022/10/17 08:17:56;;;;;;;4.57;3.17;;;14.70;94.70;;;;;;5046347;28;20225;-87
2022/10/17 08:20:25;;;;;;;9.80;3.53;;;14.80;94.20;;;;;;5050273;28;20281;-87
2022/10/17 08:23:20;;;;;;;4.03;2.92;;;15.00;93.40;;;;;;5048359;28;20249;-87
2022/10/17 08:26:05;;;;;;;3.70;3.05;;;15.20;92.50;;;;;;5043887;28;20193;-87
2022/10/17 08:28:34;;;;;;;5.03;2.70;;;15.40;92.40;;;;;;5048062;28;20204;-86
2022/10/17 08:31:10;;;;;;;3.55;3.13;;;15.50;91.90;;;;;;5045702;28;20189;-88
2022/10/17 08:33:38;;;;;;;4.80;3.00;;;15.70;91.60;;;;;;5045302;28;20282;-87
2022/10/17 08:36:07;;;;;;;5.30;2.80;;;16.00;91.80;;;;;;5056247;28;20217;-87
2022/10/17 08:38:45;;;;;;;3.33;2.80;;;16.60;90.30;;;;;;5042997;28;20202;-87
2022/10/17 08:41:40;;;;;;;4.43;2.60;;;17.10;81.30;;;;;;5047817;28;20277;-86
2022/10/17 08:44:19;;;;;;;5.50;3.13;;;17.50;81.20;;;;;;5052743;28;20200;-86
2022/10/17 08:47:00;;;;;;;3.50;2.83;;;17.90;75.20;;;;;;5052646;28;20202;-86
2022/10/17 08:49:46;;;;;;;3.35;3.10;;;18.30;66.60;;;;;;5050977;28;20197;-86
2022/10/17 08:52:22;;;;;;;6.57;3.10;;;19.30;70.90;;;;;;5036753;28;20199;-87
2022/10/17 08:54:51;;;;;;;7.63;2.90;;;20.40;50.80;;;;;;5053397;28;20208;-82
2022/10/17 08:57:33;;;;;;;5.50;2.90;;;21.50;38.70;;;;;;5051119;28;20309;-81
2022/10/17 09:00:04;;;;;;;4.72;2.90;;;22.80;34.30;;;;;;5046476;28;20693;-83
2022/10/17 09:02:42;;;;;;;3.30;2.88;;;23.40;29.00;;;;;;5043396;28;20196;-84
2022/10/17 09:05:28;;;;;;;5.57;2.80;;;24.20;28.20;;;;;;5049016;28;20220;-84
2022/10/17 09:08:06;;;;;;;4.25;3.10;;;25.10;24.50;;;;;;5050444;28;20203;-84
2022/10/17 09:10:44;;;;;;;5.78;2.88;;;26.10;22.20;;;;;;5053588;28;20189;-84
2022/10/17 09:13:23;;;;;;;3.60;3.28;;;27.10;20.40;;;;;;5052824;28;20190;-85
2022/10/17 09:16:07;;;;;;;3.30;3.00;;;28.00;18.40;;;;;;5052589;28;20547;-85
2022/10/17 09:18:41;;;;;;;5.97;3.20;;;29.00;16.10;;;;;;5060937;28;20213;-85
2022/10/17 09:21:36;;;;;;;4.35;3.40;;;29.40;14.50;;;;;;5036152;28;20245;-85
2022/10/17 09:24:17;;;;;;;3.53;3.22;;;29.00;14.60;;;;;;5036130;28;20206;-85
2022/10/17 09:26:57;;;;;;;6.40;3.65;;;29.20;14.70;;;;;;5039520;28;20215;-85
2022/10/17 09:29:28;;;;;;;4.80;3.50;;;28.90;13.40;;;;;;5038845;28;20596;-84
2022/10/17 09:32:11;;;;;;;7.22;3.95;;;29.20;14.60;;;;;;5050930;28;20575;-85
2022/10/17 09:34:39;;;;;;;4.10;3.70;;;29.70;13.40;;;;;;5044552;28;20212;-84
2022/10/17 09:37:13;;;;;;;7.03;4.13;;;30.20;12.20;;;;;;5050087;28;20233;-85
2022/10/17 09:39:43;;;;;;;4.93;3.50;;;29.70;12.70;;;;;;5040469;28;20199;-85
2022/10/17 09:42:39;;;;;;;3.67;3.33;;;28.90;13.30;;;;;;5053342;28;20565;-84
2022/10/17 09:45:25;;;;;;;5.00;3.40;;;29.20;13.60;;;;;;5039393;28;20209;-83
2022/10/17 09:48:18;;;;;;;3.85;3.38;;;29.50;12.10;;;;;;5053909;28;20225;-83
2022/10/17 09:50:46;;;;;;;6.45;3.80;;;29.50;13.30;;;;;;5048806;28;20207;-83
2022/10/17 09:53:25;;;;;;;6.75;3.42;;;29.00;13.90;;;;;;5051596;28;20194;-83
2022/10/17 09:56:14;;;;;;;7.25;3.47;;;28.70;13.50;;;;;;5040264;28;20200;-84
2022/10/17 09:58:43;;;;;;;4.18;3.13;;;28.40;15.80;;;;;;5046121;28;20316;-83
2022/10/17 10:01:19;;;;;;;5.65;3.03;;;28.30;15.90;;;;;;5046564;28;20229;-83
2022/10/17 10:07:12;;;;;;;5.30;3.03;;;27.90;15.60;;;;;;5050087;28;20224;-84
2022/10/17 10:09:39;;;;;;;5.20;3.58;;;28.00;14.50;;;;;;5037942;28;20198;-84
2022/10/17 10:12:20;;;;;;;5.85;3.20;;;27.00;15.20;;;;;;5045650;28;20206;-83
2022/10/17 10:14:51;;;;;;;3.53;3.10;;;26.80;16.30;;;;;;5037829;28;20201;-84
2022/10/17 10:17:40;;;;;;;4.13;3.08;;;26.40;17.00;;;;;;5042165;28;20574;-84
2022/10/17 10:20:27;;;;;;;5.22;3.22;;;26.40;17.90;;;;;;5048766;28;20683;-83
2022/10/17 10:23:10;;;;;;;3.20;2.80;;;26.80;17.70;;;;;;5037474;28;20201;-84
2022/10/17 10:25:53;;;;;;;4.40;2.83;;;26.40;17.00;;;;;;5047178;28;20194;-84
2022/10/17 10:28:36;;;;;;;3.00;2.75;;;26.20;18.00;;;;;;5037423;28;20206;-84
2022/10/17 10:31:10;;;;;;;5.63;2.88;;;27.20;16.00;;;;;;5042982;28;20203;-84
2022/10/17 10:33:45;;;;;;;4.35;2.90;;;26.80;15.00;;;;;;5051128;28;21017;-84
2022/10/17 10:36:41;;;;;;;6.85;2.75;;;26.70;15.50;;;;;;5043201;28;20227;-84
2022/10/17 10:39:35;;;;;;;3.55;2.70;;;26.50;17.10;;;;;;5045460;28;20198;-83
2022/10/17 10:45:43;;;;;;;3.63;2.90;;;26.00;17.90;;;;;;5039215;28;20710;-84
2022/10/17 10:48:22;;;;;;;8.25;2.92;;;25.80;17.90;;;;;;5043512;28;20197;-84
2022/10/17 10:51:07;;;;;;;4.07;2.60;;;26.20;17.10;;;;;;5049305;28;20198;-84
2022/10/17 10:53:55;;;;;;;7.35;2.70;;;26.00;16.50;;;;;;5052789;28;20196;-85
2022/10/17 10:56:28;;;;;;;3.15;2.58;;;26.00;16.50;;;;;;5055656;28;20193;-83
2022/10/17 10:59:10;;;;;;;3.50;2.53;;;25.50;19.40;;;;;;5053756;28;20206;-85
2022/10/17 11:01:48;;;;;;;2.47;2.28;;;24.90;19.40;;;;;;5047897;28;20198;-82
2022/10/17 11:04:40;;;;;;;3.75;2.63;;;24.60;18.80;;;;;;5045851;28;20567;-83
2022/10/17 11:07:13;;;;;;;5.35;2.42;;;24.50;20.80;;;;;;5040640;28;20190;-83
2022/10/17 11:09:49;;;;;;;3.90;2.58;;;24.20;22.20;;;;;;5045356;28;20199;-80
2022/10/17 11:12:26;;;;;;;3.25;2.50;;;24.10;21.20;;;;;;5037312;28;20202;-81
2022/10/17 11:15:18;;;;;;;3.30;2.40;;;23.90;22.90;;;;;;5053263;28;20193;-81
2022/10/17 11:17:56;;;;;;;2.20;2.00;;;23.90;21.00;;;;;;5056344;28;20213;-83
2022/10/17 11:20:44;;;;;;;3.33;2.33;;;23.90;21.30;;;;;;5052825;28;20201;-82
2022/10/17 11:23:19;;;;;;;2.97;2.40;;;23.80;22.50;;;;;;5052950;28;20194;-81
2022/10/17 11:25:53;;;;;;;5.25;2.35;;;23.90;21.60;;;;;;5052710;28;20210;-83
2022/10/17 11:28:23;;;;;;;3.22;1.90;;;24.00;20.20;;;;;;5051541;28;20204;-85
2022/10/17 11:31:01;;;;;;;7.13;2.38;;;23.80;18.90;;;;;;5044588;28;20194;-85
2022/10/17 11:33:46;;;;;;;2.78;2.10;;;23.80;20.10;;;;;;5052812;28;20541;-85
2022/10/17 11:36:40;;;;;;;2.17;1.90;;;23.80;18.50;;;;;;5048608;28;20194;-84
2022/10/17 11:39:27;;;;;;;4.00;2.35;;;23.90;18.60;;;;;;5048147;28;20292;-86
2022/10/17 11:42:07;;;;;;;9.65;8.32;;;23.90;18.50;;;;;;5056291;28;20201;-84
2022/10/17 11:44:56;;;;;;;3.17;2.30;;;24.00;18.20;;;;;;5048203;28;20201;-84
2022/10/17 11:47:36;;;;;;;3.42;2.10;;;23.90;19.20;;;;;;5057371;28;20226;-84
2022/10/17 11:50:27;;;;;;;16.20;13.48;;;23.80;18.70;;;;;;5065393;28;20201;-83
2022/10/17 11:53:00;;;;;;;6.03;4.20;;;23.90;19.40;;;;;;5042202;28;20230;-86
2022/10/17 11:55:28;;;;;;;2.80;2.10;;;23.80;19.00;;;;;;5048027;28;20194;-86
2022/10/17 11:58:23;;;;;;;5.97;2.28;;;23.80;19.80;;;;;;5049201;28;20258;-85
2022/10/17 12:01:17;;;;;;;3.10;2.30;;;23.80;18.70;;;;;;5051214;28;20220;-86
2022/10/17 12:04:02;;;;;;;4.82;2.50;;;23.80;19.40;;;;;;5050613;28;20280;-86
2022/10/17 12:06:47;;;;;;;2.28;2.08;;;23.80;20.10;;;;;;5051287;28;20316;-86
2022/10/17 12:09:30;;;;;;;3.38;2.10;;;23.70;18.60;;;;;;5043789;28;20197;-86
2022/10/17 12:12:04;;;;;;;4.47;2.00;;;23.80;18.60;;;;;;5026173;28;20285;-87
2022/10/17 12:14:51;;;;;;;2.83;2.30;;;23.80;19.60;;;;;;5040908;28;20272;-86
2022/10/17 12:17:45;;;;;;;3.42;2.28;;;23.80;19.60;;;;;;5038678;28;20201;-86
2022/10/17 12:20:33;;;;;;;3.53;2.17;;;23.80;19.70;;;;;;5043715;28;20620;-86
2022/10/17 12:23:27;;;;;;;3.60;2.25;;;23.80;19.30;;;;;;5052476;28;20194;-86
2022/10/17 12:26:10;;;;;;;3.00;2.60;;;23.80;19.70;;;;;;5046200;28;20202;-86
2022/10/17 12:28:47;;;;;;;5.22;2.33;;;23.70;21.50;;;;;;5050504;28;20202;-85
2022/10/17 12:31:24;;;;;;;3.95;2.33;;;23.50;23.20;;;;;;5050542;28;20229;-86
2022/10/17 12:33:54;;;;;;;7.30;2.50;;;23.50;22.50;;;;;;5047156;28;20193;-85
2022/10/17 12:36:50;;;;;;;2.90;2.33;;;23.50;21.50;;;;;;5054009;28;20198;-85
2022/10/17 12:39:52;;;;;;;3.15;2.20;;;23.60;21.20;;;;;;5050380;28;20217;-86
2022/10/17 12:42:50;;;;;;;3.30;2.03;;;23.50;20.90;;;;;;5052061;28;20239;-85
2022/10/17 12:45:46;;;;;;;3.38;2.45;;;23.50;19.30;;;;;;4982956;28;20195;-86
2022/10/17 12:48:48;;;;;;;3.17;2.33;;;23.60;19.80;;;;;;5047193;28;20617;-86
2022/10/17 12:51:23;;;;;;;2.30;2.10;;;23.60;20.70;;;;;;5045702;28;20189;-86
2022/10/17 12:53:58;;;;;;;3.25;2.10;;;23.60;19.70;;;;;;5041044;28;20202;-86
2022/10/17 12:56:47;;;;;;;4.45;2.58;;;23.70;19.70;;;;;;5039075;28;20197;-86
2022/10/17 12:59:25;;;;;;;2.80;1.95;;;23.60;21.00;;;;;;5047205;28;21940;-86
2022/10/17 13:01:55;;;;;;;3.83;2.15;;;23.60;20.30;;;;;;5054896;28;20204;-86
2022/10/17 13:04:29;;;;;;;3.35;2.10;;;23.60;19.90;;;;;;5038097;28;20292;-85
2022/10/17 13:07:04;;;;;;;3.97;2.60;;;23.60;22.00;;;;;;5049404;28;20200;-85
2022/10/17 13:10:26;;;;;;;2.50;2.30;;;23.60;22.70;;;;;;5051092;28;20280;-86
2022/10/17 13:13:11;;;;;;;4.00;2.15;;;23.60;22.10;;;;;;5049926;28;20200;-85
2022/10/17 13:15:49;;;;;;;2.35;1.90;;;23.60;20.80;;;;;;5043041;28;20200;-86
2022/10/17 13:18:24;;;;;;;2.60;2.40;;;23.70;18.50;;;;;;5040423;28;20566;-86
2022/10/17 13:21:15;;;;;;;3.97;2.47;;;23.70;18.10;;;;;;5046822;28;20204;-86
2022/10/17 13:23:46;;;;;;;4.90;1.92;;;23.60;20.00;;;;;;5051211;28;20222;-86
2022/10/17 13:26:19;;;;;;;3.13;1.85;;;23.50;18.60;;;;;;5044263;28;20198;-85
2022/10/17 13:29:10;;;;;;;2.85;1.70;;;23.60;17.50;;;;;;5046972;28;20228;-85
2022/10/17 13:32:10;;;;;;;2.90;2.08;;;23.60;17.50;;;;;;5041317;28;20197;-86
2022/10/17 13:35:07;;;;;;;2.78;1.85;;;23.60;16.90;;;;;;5040156;28;20191;-85
2022/10/17 13:37:35;;;;;;;3.35;1.92;;;23.60;17.40;;;;;;4990489;28;20287;-87
2022/10/17 13:40:05;;;;;;;3.90;3.28;;;23.50;17.10;;;;;;4992529;28;20200;-86
2022/10/17 13:42:39;;;;;;;4.25;2.13;;;23.60;18.60;;;;;;4991240;28;20278;-86
2022/10/17 13:45:18;;;;;;;3.35;1.75;;;23.50;18.50;;;;;;4991712;28;20192;-86
2022/10/17 13:47:58;;;;;;;2.08;1.88;;;23.50;17.50;;;;;;4993928;28;20662;-86
2022/10/17 13:50:37;;;;;;;4.55;2.13;;;23.40;19.00;;;;;;4992112;28;20619;-86
2022/10/17 13:53:15;;;;;;;3.83;1.92;;;23.40;19.60;;;;;;4993392;28;20291;-85
2022/10/17 13:55:51;;;;;;;3.47;2.35;;;23.20;19.60;;;;;;4992366;28;20192;-87
2022/10/17 13:58:18;;;;;;;2.17;1.98;;;23.20;19.00;;;;;;4991486;28;20230;-85
2022/10/17 14:00:53;;;;;;;2.50;2.30;;;23.20;19.50;;;;;;4988712;28;20206;-85
2022/10/17 14:03:22;;;;;;;4.10;2.50;;;23.10;19.80;;;;;;4993042;28;20198;-85
2022/10/17 14:06:17;;;;;;;4.90;2.65;;;23.10;21.40;;;;;;5002378;28;20702;-87
2022/10/17 14:08:58;;;;;;;6.47;3.75;;;23.00;20.90;;;;;;4992973;28;20200;-85
2022/10/17 14:11:34;;;;;;;8.15;6.93;;;23.00;20.90;;;;;;4982307;28;20255;-86
2022/10/17 14:14:05;;;;;;;4.28;2.00;;;23.00;21.30;;;;;;5032314;28;20212;-86
2022/10/17 14:16:47;;;;;;;5.70;2.83;;;23.00;19.60;;;;;;5055752;28;20261;-84
2022/10/17 14:19:23;;;;;;;2.35;2.15;;;23.00;20.40;;;;;;5054300;28;20206;-85
2022/10/17 14:22:16;;;;;;;3.45;2.20;;;23.00;20.00;;;;;;5055469;28;20194;-86
2022/10/17 14:24:44;;;;;;;2.92;2.50;;;22.90;19.60;;;;;;5053290;28;20530;-85
2022/10/17 14:27:27;;;;;;;4.25;2.53;;;22.90;20.20;;;;;;5056868;28;20234;-86
2022/10/17 14:29:56;;;;;;;3.35;2.00;;;22.80;22.60;;;;;;5055917;28;20642;-86
2022/10/17 14:32:32;;;;;;;4.25;2.33;;;22.80;20.80;;;;;;5056038;28;20197;-87
2022/10/17 14:35:05;;;;;;;36.47;32.63;;;22.80;20.50;;;;;;5048976;28;20708;-86
2022/10/17 14:37:37;;;;;;;4.05;3.00;;;22.70;21.00;;;;;;5048009;28;20678;-86
2022/10/17 14:40:16;;;;;;;5.75;2.20;;;22.70;20.90;;;;;;5050826;28;20628;-85
2022/10/17 14:43:18;;;;;;;3.40;2.42;;;22.70;20.50;;;;;;5047568;28;20258;-85
2022/10/17 14:46:26;;;;;;;7.00;2.50;;;22.80;21.20;;;;;;5054893;28;20565;-86
2022/10/17 14:49:07;;;;;;;5.20;2.35;;;22.70;22.50;;;;;;5047243;28;20222;-86
2022/10/17 14:52:14;;;;;;;2.42;2.03;;;22.60;22.40;;;;;;5050303;28;20189;-85
2022/10/17 14:54:43;;;;;;;4.70;2.10;;;22.50;22.30;;;;;;5046807;28;20683;-85
2022/10/17 14:57:18;;;;;;;3.95;1.90;;;22.40;23.60;;;;;;5051816;28;20225;-86
2022/10/17 14:59:46;;;;;;;6.93;2.40;;;22.40;22.30;;;;;;5052939;28;20216;-86
2022/10/17 15:02:13;;;;;;;3.78;2.28;;;22.30;22.20;;;;;;5053609;28;20257;-85
2022/10/17 15:05:04;;;;;;;4.57;2.17;;;22.40;22.20;;;;;;5050153;28;20274;-85
2022/10/17 15:07:51;;;;;;;3.72;2.20;;;22.30;22.20;;;;;;5052720;28;20205;-84
2022/10/17 15:10:30;;;;;;;3.50;2.22;;;22.20;23.80;;;;;;5049918;28;20660;-86
2022/10/17 15:12:59;;;;;;;2.17;1.83;;;22.10;23.90;;;;;;5046895;28;20216;-86
2022/10/17 15:15:26;;;;;;;3.35;2.38;;;22.00;24.50;;;;;;5051758;28;20209;-85
2022/10/17 15:18:15;;;;;;;6.50;2.72;;;21.90;26.10;;;;;;5049987;28;20642;-85
2022/10/17 15:21:12;;;;;;;4.45;2.33;;;21.80;26.20;;;;;;5046536;28;20202;-85
2022/10/17 15:23:40;;;;;;;2.20;2.00;;;21.70;26.60;;;;;;5048294;28;20198;-86
2022/10/17 15:26:15;;;;;;;2.38;2.13;;;21.60;27.00;;;;;;5052400;28;20194;-85
2022/10/17 15:28:52;;;;;;;3.35;2.50;;;21.50;26.80;;;;;;5054845;28;20252;-85
2022/10/17 15:31:23;;;;;;;3.72;2.20;;;21.40;27.40;;;;;;5051756;28;20556;-86
2022/10/17 15:37:34;;;;;;;4.70;2.33;;;21.20;26.60;;;;;;5042469;28;20245;-83
2022/10/17 15:44:02;;;;;;;3.45;2.08;;;20.80;28.60;;;;;;5047069;28;20192;-88